Time;durP1;ratioP1;P1;durP2;ratioP2;P2;SDS_P1;SDS_P2;PMS_P1;PMS_P2;Temp;Humidity;BMP_temperature;BMP_pressure;BME280_temperature;BME280_humidity;BME280_pressure;Samples;Min_cycle;Max_cycle;Signal;HPM_P1;HPM_P2
2024/01/30 00:01:54;;;;;;;11.45;6.22;;;;;;;8.01;100.00;102516.16;5043004;28;20514;-62
2024/01/30 00:04:42;;;;;;;11.32;6.78;;;;;;;8.00;100.00;102517.19;5056491;28;20059;-62
2024/01/30 00:07:30;;;;;;;11.55;6.85;;;;;;;7.99;100.00;102518.25;5056167;28;20052;-62
2024/01/30 00:10:18;;;;;;;11.35;6.30;;;;;;;8.00;100.00;102519.91;5072100;28;20399;-62
2024/01/30 00:13:07;;;;;;;13.45;7.07;;;;;;;8.01;100.00;102518.03;5075206;28;20036;-62
2024/01/30 00:15:55;;;;;;;11.20;6.40;;;;;;;8.00;100.00;102517.19;5077044;28;20089;-60
2024/01/30 00:18:43;;;;;;;9.82;6.10;;;;;;;8.00;100.00;102519.91;5091434;28;20044;-62
2024/01/30 00:21:31;;;;;;;16.08;6.80;;;;;;;8.00;100.00;102514.47;5066201;28;20044;-64
2024/01/30 00:24:19;;;;;;;11.63;6.65;;;;;;;7.99;100.00;102512.81;5091758;28;20051;-63
2024/01/30 00:27:07;;;;;;;11.10;7.13;;;;;;;8.00;100.00;102514.47;5091583;28;20052;-62
2024/01/30 00:29:55;;;;;;;13.50;6.80;;;;;;;8.00;100.00;102514.47;5050703;28;20053;-59
2024/01/30 00:32:43;;;;;;;10.85;6.00;;;;;;;8.00;100.00;102516.38;5057695;28;20491;-63
2024/01/30 00:35:31;;;;;;;12.38;7.13;;;;;;;7.99;100.00;102510.13;5043848;28;20140;-61
2024/01/30 00:38:19;;;;;;;12.10;7.10;;;;;;;7.98;100.00;102500.28;5056598;28;20052;-59
2024/01/30 00:41:09;;;;;;;15.55;6.20;;;;;;;7.98;100.00;102504.88;5070239;28;20562;-62
2024/01/30 00:43:57;;;;;;;12.82;6.88;;;;;;;7.96;100.00;102502.41;5057266;28;20193;-63
2024/01/30 00:46:45;;;;;;;11.00;6.43;;;;;;;7.95;100.00;102498.00;5090716;28;20201;-63
2024/01/30 00:49:33;;;;;;;12.27;7.28;;;;;;;7.93;100.00;102494.66;5076944;28;20513;-61
2024/01/30 00:52:21;;;;;;;10.07;6.20;;;;;;;7.92;100.00;102495.72;5091679;28;20044;-62
2024/01/30 00:55:09;;;;;;;14.70;6.93;;;;;;;7.92;100.00;102501.13;5076363;28;20499;-62
2024/01/30 00:57:57;;;;;;;11.93;7.47;;;;;;;7.91;100.00;102494.03;5065600;28;20527;-62
2024/01/30 01:00:45;;;;;;;11.60;6.80;;;;;;;7.90;100.00;102493.19;5056978;28;20053;-63
2024/01/30 01:03:33;;;;;;;11.43;7.05;;;;;;;7.89;100.00;102490.72;5071663;28;20194;-62
2024/01/30 01:06:21;;;;;;;13.75;7.13;;;;;;;7.88;100.00;102495.28;5056325;28;20048;-62
2024/01/30 01:09:12;;;;;;;10.88;6.70;;;;;;;7.89;100.00;102488.00;5070688;28;20123;-64
2024/01/30 01:12:01;;;;;;;13.70;6.95;;;;;;;7.88;100.00;102483.59;5060526;28;20127;-62
2024/01/30 01:14:49;;;;;;;13.00;6.97;;;;;;;7.89;100.00;102488.00;5043612;28;20179;-60
2024/01/30 01:17:40;;;;;;;11.85;6.95;;;;;;;7.88;100.00;102487.13;5073029;28;20041;-61
2024/01/30 01:20:28;;;;;;;10.20;6.53;;;;;;;7.87;100.00;102481.94;5057806;28;20060;-62
2024/01/30 01:23:16;;;;;;;13.18;7.07;;;;;;;7.86;100.00;102481.09;5080216;28;20051;-62
2024/01/30 01:26:05;;;;;;;12.18;7.30;;;;;;;7.86;100.00;102480.25;5070919;28;20551;-62
2024/01/30 01:28:53;;;;;;;13.25;7.13;;;;;;;7.85;100.00;102475.88;5071184;28;20492;-62
2024/01/30 01:31:44;;;;;;;12.43;7.57;;;;;;;7.85;100.00;102484.00;5076450;28;20044;-62
2024/01/30 01:34:32;;;;;;;13.05;7.72;;;;;;;7.85;100.00;102481.31;5077016;28;20044;-62
2024/01/30 01:37:22;;;;;;;13.23;7.25;;;;;;;7.86;100.00;102480.25;5077665;28;20044;-62
2024/01/30 01:40:10;;;;;;;11.15;7.10;;;;;;;7.84;100.00;102468.75;5086157;28;20048;-65
2024/01/30 01:42:58;;;;;;;12.25;7.60;;;;;;;7.83;100.00;102475.25;5095691;28;20066;-62
2024/01/30 01:45:46;;;;;;;11.57;7.03;;;;;;;7.82;100.00;102468.16;5095704;28;20044;-62
2024/01/30 01:48:34;;;;;;;11.88;7.32;;;;;;;7.80;100.00;102475.66;5064857;28;20048;-62
2024/01/30 01:51:23;;;;;;;13.05;6.80;;;;;;;7.78;100.00;102467.72;5058389;28;20106;-63
2024/01/30 01:54:11;;;;;;;12.68;7.50;;;;;;;7.79;100.00;102471.28;5072219;28;20393;-62
2024/01/30 01:57:00;;;;;;;11.10;7.20;;;;;;;7.77;100.00;102462.50;5074181;28;20053;-62
2024/01/30 01:59:48;;;;;;;11.55;7.43;;;;;;;7.77;100.00;102459.78;5070472;28;20040;-62
2024/01/30 02:02:36;;;;;;;12.20;7.22;;;;;;;7.75;100.00;102461.91;5092283;28;20075;-63
2024/01/30 02:05:25;;;;;;;11.48;7.38;;;;;;;7.75;100.00;102461.91;5055432;28;20045;-62
2024/01/30 02:08:13;;;;;;;12.30;7.38;;;;;;;7.75;100.00;102462.72;5038843;28;20045;-62
2024/01/30 02:11:01;;;;;;;12.88;7.85;;;;;;;7.74;100.00;102452.91;5053796;28;20053;-62
2024/01/30 02:13:50;;;;;;;13.05;7.68;;;;;;;7.74;100.00;102457.50;5088918;28;20044;-62
2024/01/30 02:16:38;;;;;;;14.23;8.20;;;;;;;7.74;100.00;102458.31;5093694;28;20507;-62
2024/01/30 02:19:25;;;;;;;11.45;7.47;;;;;;;7.73;100.00;102453.97;5095722;28;20136;-63
2024/01/30 02:22:14;;;;;;;11.10;7.57;;;;;;;7.73;100.00;102458.56;5093613;28;20040;-62
2024/01/30 02:25:02;;;;;;;13.30;7.45;;;;;;;7.74;100.00;102454.78;5070845;28;20076;-63
2024/01/30 02:27:50;;;;;;;12.38;7.82;;;;;;;7.75;100.00;102453.75;5073898;28;20048;-63
2024/01/30 02:30:40;;;;;;;12.38;7.20;;;;;;;7.75;100.00;102461.91;5059776;28;20048;-63
2024/01/30 02:33:28;;;;;;;13.15;7.13;;;;;;;7.74;100.00;102454.78;5060267;28;20040;-63
2024/01/30 02:36:16;;;;;;;15.75;7.55;;;;;;;7.72;100.00;102443.31;5057961;28;20102;-62
2024/01/30 02:39:05;;;;;;;12.85;7.22;;;;;;;7.71;100.00;102447.91;5074405;28;20107;-62
2024/01/30 02:41:53;;;;;;;12.98;7.78;;;;;;;7.72;100.00;102451.44;5077230;28;20108;-60
2024/01/30 02:44:40;;;;;;;13.38;7.15;;;;;;;7.71;100.00;102447.91;5079458;28;20124;-62
2024/01/30 02:47:28;;;;;;;11.02;7.50;;;;;;;7.71;100.00;102445.19;5104701;28;20044;-63
2024/01/30 02:50:17;;;;;;;11.45;7.05;;;;;;;7.71;100.00;102445.19;5077174;28;20051;-63
2024/01/30 02:53:05;;;;;;;11.07;6.93;;;;;;;7.71;100.00;102444.34;5075098;28;20048;-62
2024/01/30 02:55:53;;;;;;;12.52;7.55;;;;;;;7.69;100.00;102442.66;5071053;28;20059;-62
2024/01/30 02:58:41;;;;;;;12.25;7.38;;;;;;;7.67;100.00;102433.94;5084907;28;20036;-61
2024/01/30 03:01:29;;;;;;;12.73;6.95;;;;;;;7.65;100.00;102430.59;5074561;28;20048;-63
2024/01/30 03:04:17;;;;;;;13.15;7.43;;;;;;;7.64;100.00;102433.50;5073729;28;20074;-62
2024/01/30 03:07:05;;;;;;;11.07;7.15;;;;;;;7.63;100.00;102435.38;5060079;28;20045;-62
2024/01/30 03:09:55;;;;;;;12.57;7.72;;;;;;;7.64;100.00;102428.06;5058120;28;20082;-62
2024/01/30 03:12:43;;;;;;;11.90;7.25;;;;;;;7.63;100.00;102432.66;5072454;28;20076;-63
2024/01/30 03:15:31;;;;;;;12.43;7.38;;;;;;;7.64;100.00;102428.91;5072312;28;20032;-63
2024/01/30 03:18:19;;;;;;;12.95;7.72;;;;;;;7.67;100.00;102416.78;5030549;28;20135;-62
2024/01/30 03:21:07;;;;;;;13.10;7.35;;;;;;;7.67;100.00;102414.94;5071921;28;20478;-63
2024/01/30 03:23:55;;;;;;;16.55;8.18;;;;;;;7.67;100.00;102412.22;5059031;28;20168;-62
2024/01/30 03:26:43;;;;;;;13.75;7.25;;;;;;;7.67;100.00;102411.38;5057262;28;20032;-62
2024/01/30 03:29:31;;;;;;;13.82;7.90;;;;;;;7.66;100.00;102410.53;5074381;28;20217;-61
2024/01/30 03:32:19;;;;;;;12.73;7.57;;;;;;;7.65;100.00;102398.03;5058683;28;20583;-62
2024/01/30 03:35:07;;;;;;;15.68;7.30;;;;;;;7.65;100.00;102397.22;5056371;28;20060;-62
2024/01/30 03:37:55;;;;;;;14.20;7.50;;;;;;;7.63;100.00;102396.56;5072373;28;20166;-62
2024/01/30 03:40:43;;;;;;;11.43;7.25;;;;;;;7.63;100.00;102391.97;5056382;28;20048;-61
2024/01/30 03:43:31;;;;;;;13.85;7.63;;;;;;;7.65;100.00;102394.50;5072023;28;20392;-63
2024/01/30 03:46:19;;;;;;;11.63;6.57;;;;;;;7.65;100.00;102392.59;5044887;28;20048;-63
2024/01/30 03:49:07;;;;;;;10.57;6.93;;;;;;;7.62;100.00;102398.44;5056349;28;20045;-62
2024/01/30 03:51:55;;;;;;;12.57;7.22;;;;;;;7.63;100.00;102396.56;5072498;28;20131;-63
2024/01/30 03:54:44;;;;;;;10.88;6.95;;;;;;;7.63;100.00;102400.13;5057398;28;20051;-61
2024/01/30 03:57:32;;;;;;;12.85;7.47;;;;;;;7.66;100.00;102402.41;5057173;28;20044;-62
2024/01/30 04:00:20;;;;;;;12.35;7.30;;;;;;;7.65;100.00;102403.47;5055623;28;20544;-62
2024/01/30 04:03:08;;;;;;;11.50;7.15;;;;;;;7.63;100.00;102402.84;5071767;28;20126;-62
2024/01/30 04:05:56;;;;;;;12.88;7.18;;;;;;;7.64;100.00;102407.19;5079765;28;20056;-62
2024/01/30 04:08:44;;;;;;;11.93;6.72;;;;;;;7.62;100.00;102403.03;5071490;28;20056;-62
2024/01/30 04:11:32;;;;;;;12.63;7.28;;;;;;;7.62;100.00;102413.88;5070988;28;20186;-61
2024/01/30 04:14:20;;;;;;;10.88;6.32;;;;;;;7.62;100.00;102414.72;5072239;28;20055;-62
2024/01/30 04:17:08;;;;;;;12.00;7.03;;;;;;;7.64;100.00;102423.47;5057902;28;20044;-61
2024/01/30 04:19:56;;;;;;;13.13;6.47;;;;;;;7.66;100.00;102421.41;5057850;28;20122;-61
2024/01/30 04:22:45;;;;;;;10.43;6.18;;;;;;;7.66;100.00;102405.13;5071198;28;20043;-62
2024/01/30 04:25:33;;;;;;;10.23;6.57;;;;;;;7.69;100.00;102403.88;5056461;28;20048;-62
2024/01/30 04:28:21;;;;;;;12.70;6.43;;;;;;;7.68;100.00;102392.19;5071090;28;20048;-64
2024/01/30 04:31:09;;;;;;;12.50;6.80;;;;;;;7.68;100.00;102394.91;5071170;28;20041;-62
2024/01/30 04:33:57;;;;;;;11.50;6.35;;;;;;;7.68;100.00;102389.47;5070344;28;20049;-62
2024/01/30 04:36:46;;;;;;;9.45;5.53;;;;;;;7.71;100.00;102387.38;5070357;28;20040;-64
2024/01/30 04:39:34;;;;;;;10.93;6.20;;;;;;;7.73;100.00;102385.31;5070775;28;20175;-62
2024/01/30 04:42:22;;;;;;;10.93;5.90;;;;;;;7.74;100.00;102386.94;5070503;28;20036;-62
2024/01/30 04:45:10;;;;;;;9.82;5.95;;;;;;;7.75;100.00;102381.34;5051813;28;20095;-62
2024/01/30 04:47:58;;;;;;;11.45;5.97;;;;;;;7.76;100.00;102376.72;5049768;28;20044;-63
2024/01/30 04:50:46;;;;;;;8.73;5.68;;;;;;;7.75;100.00;102369.66;5035766;28;20045;-62
2024/01/30 04:53:34;;;;;;;11.18;6.45;;;;;;;7.72;100.00;102370.06;5051975;28;20051;-61
2024/01/30 04:56:22;;;;;;;11.48;5.60;;;;;;;7.73;100.00;102378.00;5052712;28;20056;-61
2024/01/30 04:59:10;;;;;;;13.27;6.88;;;;;;;7.73;100.00;102371.72;5052144;28;20041;-62
2024/01/30 05:01:58;;;;;;;10.10;5.85;;;;;;;7.72;100.00;102379.06;5051747;28;20045;-64
2024/01/30 05:04:46;;;;;;;9.15;5.93;;;;;;;7.74;100.00;102378.81;5050968;28;20434;-62
2024/01/30 05:07:34;;;;;;;10.73;6.03;;;;;;;7.74;100.00;102378.81;5066946;28;20123;-62
2024/01/30 05:10:22;;;;;;;12.45;5.50;;;;;;;7.74;100.00;102379.66;5060945;28;20080;-62
2024/01/30 05:13:13;;;;;;;11.98;6.20;;;;;;;7.74;100.00;102374.22;5061533;28;20052;-61
2024/01/30 05:16:03;;;;;;;9.80;6.03;;;;;;;7.75;100.00;102375.06;5074793;28;20048;-62
2024/01/30 05:18:52;;;;;;;9.80;5.53;;;;;;;7.74;100.00;102374.22;5074946;28;20412;-61
2024/01/30 05:21:40;;;;;;;10.93;5.82;;;;;;;7.75;100.00;102372.38;5054896;28;20076;-62
2024/01/30 05:24:28;;;;;;;11.07;6.28;;;;;;;7.74;100.00;102373.38;5039716;28;20053;-62
2024/01/30 05:27:16;;;;;;;10.38;5.63;;;;;;;7.74;100.00;102373.38;5040797;28;20056;-63
2024/01/30 05:30:06;;;;;;;9.88;5.30;;;;;;;7.75;100.00;102375.06;5061756;28;20044;-63
2024/01/30 05:32:54;;;;;;;10.02;6.07;;;;;;;7.75;100.00;102375.06;5080494;28;20093;-64
2024/01/30 05:35:42;;;;;;;10.90;5.82;;;;;;;7.75;100.00;102375.06;5080441;28;20044;-61
2024/01/30 05:38:31;;;;;;;10.30;6.47;;;;;;;7.74;100.00;102374.22;5089803;28;20422;-62
2024/01/30 05:41:21;;;;;;;10.80;6.10;;;;;;;7.75;100.00;102378.63;5075976;28;20044;-62
2024/01/30 05:44:09;;;;;;;12.05;6.45;;;;;;;7.73;100.00;102377.16;5061720;28;20124;-63
2024/01/30 05:46:57;;;;;;;13.48;7.30;;;;;;;7.73;100.00;102377.16;5058886;28;20060;-63
2024/01/30 05:49:45;;;;;;;11.40;6.60;;;;;;;7.71;100.00;102376.53;5078510;28;20075;-61
2024/01/30 05:52:33;;;;;;;10.65;6.15;;;;;;;7.71;100.00;102376.53;5088578;28;20384;-62
2024/01/30 05:55:21;;;;;;;9.00;6.03;;;;;;;7.71;100.00;102373.81;5081548;28;20071;-62
2024/01/30 05:58:09;;;;;;;9.77;6.05;;;;;;;7.71;100.00;102376.53;5075814;28;20493;-61
2024/01/30 06:00:58;;;;;;;11.60;6.18;;;;;;;7.74;100.00;102373.38;5060644;28;20040;-62
2024/01/30 06:03:46;;;;;;;12.75;6.18;;;;;;;7.73;100.00;102377.16;5074658;28;20044;-63
2024/01/30 06:06:34;;;;;;;12.38;6.22;;;;;;;7.73;100.00;102369.84;5059742;28;20126;-62
2024/01/30 06:09:22;;;;;;;9.98;5.72;;;;;;;7.76;100.00;102374.84;5070541;28;20231;-63
2024/01/30 06:12:12;;;;;;;10.30;5.70;;;;;;;7.78;100.00;102374.66;5059192;28;20044;-62
2024/01/30 06:15:00;;;;;;;11.55;5.43;;;;;;;7.77;100.00;102372.97;5073729;28;20041;-64
2024/01/30 06:17:48;;;;;;;9.93;5.82;;;;;;;7.77;100.00;102373.81;5075017;28;20128;-62
2024/01/30 06:20:39;;;;;;;9.13;5.18;;;;;;;7.80;100.00;102383.41;5075000;28;20500;-63
2024/01/30 06:23:29;;;;;;;11.52;6.03;;;;;;;7.81;100.00;102385.06;5093476;28;20044;-62
2024/01/30 06:26:18;;;;;;;9.07;5.80;;;;;;;7.82;100.00;102394.91;5095266;28;20055;-63
2024/01/30 06:29:06;;;;;;;10.50;5.65;;;;;;;7.82;100.00;102392.19;5079263;28;20507;-63
2024/01/30 06:31:54;;;;;;;11.13;6.07;;;;;;;7.82;100.00;102393.00;4342353;28;9999921;-63
2024/01/30 06:34:44;;;;;;;10.05;5.53;;;;;;;7.81;100.00;102385.06;5070082;28;20079;-64
2024/01/30 06:37:32;;;;;;;10.63;5.55;;;;;;;7.81;100.00;102391.31;5056758;28;20412;-64
2024/01/30 06:40:20;;;;;;;10.43;5.95;;;;;;;7.82;100.00;102392.19;5055587;28;20131;-63
2024/01/30 06:43:08;;;;;;;9.50;5.70;;;;;;;7.83;100.00;102396.56;5068281;28;20048;-62
2024/01/30 06:45:56;;;;;;;9.88;5.93;;;;;;;7.82;100.00;102400.31;5077315;28;20048;-63
2024/01/30 06:48:44;;;;;;;10.98;6.05;;;;;;;7.83;100.00;102396.56;5075788;28;20123;-63
2024/01/30 06:51:33;;;;;;;13.55;5.95;;;;;;;7.83;100.00;102401.97;5075657;28;20059;-64
2024/01/30 06:54:21;;;;;;;11.35;5.35;;;;;;;7.83;100.00;102410.94;5071221;28;20078;-64
2024/01/30 06:57:11;;;;;;;9.80;5.20;;;;;;;7.84;100.00;102411.78;5056114;28;20464;-62
2024/01/30 06:59:59;;;;;;;8.68;5.40;;;;;;;7.85;100.00;102408.03;5073806;28;20370;-63
2024/01/30 07:02:47;;;;;;;10.60;5.50;;;;;;;7.86;100.00;102404.25;5090070;28;20091;-64
2024/01/30 07:05:35;;;;;;;8.93;5.65;;;;;;;7.85;100.00;102411.56;5092831;28;20135;-63
2024/01/30 07:08:23;;;;;;;9.88;5.60;;;;;;;7.85;100.00;102400.72;5099697;28;20062;-63
2024/01/30 07:11:17;;;;;;;10.57;5.85;;;;;;;7.89;100.00;102415.53;5086884;28;20072;-64
2024/01/30 07:14:05;;;;;;;8.57;5.10;;;;;;;7.88;100.00;102421.16;5097455;28;20048;-64
2024/01/30 07:16:53;;;;;;;9.73;5.20;;;;;;;7.90;100.00;102421.81;5095768;28;20125;-64
2024/01/30 07:19:41;;;;;;;16.35;7.75;;;;;;;7.92;100.00;102427.03;5090892;28;20118;-64
2024/01/30 07:22:31;;;;;;;9.75;5.93;;;;;;;7.91;100.00;102442.47;5053926;28;20122;-63
2024/01/30 07:25:19;;;;;;;11.07;5.82;;;;;;;7.91;100.00;102439.75;5049162;28;20071;-64
2024/01/30 07:28:09;;;;;;;13.20;6.43;;;;;;;7.92;100.00;102438.72;5037854;28;20040;-62
2024/01/30 07:30:57;;;;;;;10.85;7.03;;;;;;;7.92;100.00;102441.44;5059769;28;20076;-62
2024/01/30 07:33:45;;;;;;;13.48;6.75;;;;;;;7.93;100.00;102442.25;5058773;28;20048;-61
2024/01/30 07:36:33;;;;;;;12.88;6.75;;;;;;;7.93;100.00;102443.09;5067348;28;20048;-62
2024/01/30 07:39:21;;;;;;;9.88;6.18;;;;;;;7.94;100.00;102452.91;5050062;28;20486;-64
2024/01/30 07:42:09;;;;;;;8.15;4.88;;;;;;;7.97;100.00;102449.78;5049859;28;20510;-65
2024/01/30 07:44:57;;;;;;;9.90;5.28;;;;;;;8.03;100.00;102451.66;5064334;28;20419;-65
2024/01/30 07:47:45;;;;;;;8.90;4.88;;;;;;;8.06;100.00;102443.09;5059260;28;20048;-66
2024/01/30 07:50:33;;;;;;;11.77;5.30;;;;;;;8.07;100.00;102439.31;5070916;28;20128;-66
2024/01/30 07:53:21;;;;;;;9.85;4.75;;;;;;;8.09;100.00;102448.06;5042943;28;20048;-64
2024/01/30 07:56:09;;;;;;;9.35;4.60;;;;;;;8.12;100.00;102449.53;5070194;28;20052;-63
2024/01/30 07:58:57;;;;;;;11.55;5.10;;;;;;;8.15;100.00;102456.41;5077081;28;20182;-65
2024/01/30 08:01:45;;;;;;;12.30;5.30;;;;;;;8.19;100.00;102460.38;5076584;28;20059;-65
2024/01/30 08:04:33;;;;;;;15.20;6.63;;;;;;;8.20;100.00;102460.19;5076180;28;20040;-65
2024/01/30 08:07:22;;;;;;;15.07;6.47;;;;;;;8.21;100.00;102472.72;5076118;28;20044;-65
2024/01/30 08:10:12;;;;;;;16.83;6.63;;;;;;;8.23;100.00;102469.78;5058946;28;20045;-65
2024/01/30 08:13:01;;;;;;;29.35;9.10;;;;;;;8.29;100.00;102469.75;5071623;28;20114;-64
2024/01/30 08:15:49;;;;;;;22.13;7.93;;;;;;;8.32;100.00;102479.34;5057438;28;20055;-65
2024/01/30 08:18:38;;;;;;;17.42;6.90;;;;;;;8.31;100.00;102464.94;5044463;28;20386;-65
2024/01/30 08:21:26;;;;;;;15.77;6.35;;;;;;;8.33;100.00;102467.47;5052105;28;20045;-66
2024/01/30 08:24:14;;;;;;;14.40;6.13;;;;;;;8.34;100.00;102471.84;5019868;28;20064;-65
2024/01/30 08:27:02;;;;;;;18.90;7.68;;;;;;;8.40;100.00;102475.63;5071505;28;20149;-65
2024/01/30 08:29:50;;;;;;;15.27;5.80;;;;;;;8.41;100.00;102469.97;5037619;28;20049;-63
2024/01/30 08:32:38;;;;;;;12.68;5.40;;;;;;;8.41;100.00;102475.41;5037491;28;20076;-64
2024/01/30 08:35:26;;;;;;;11.50;5.40;;;;;;;8.44;100.00;102474.13;5050947;28;20411;-64
2024/01/30 08:38:14;;;;;;;10.30;4.70;;;;;;;8.47;100.00;102468.31;5060406;28;20545;-64
2024/01/30 08:41:03;;;;;;;17.40;6.03;;;;;;;8.48;100.00;102478.94;5075802;28;20051;-65
2024/01/30 08:43:52;;;;;;;13.60;5.95;;;;;;;8.51;100.00;102478.53;5090799;28;20044;-65
2024/01/30 08:46:40;;;;;;;14.32;6.10;;;;;;;8.56;100.00;102479.75;5091596;28;20098;-65
2024/01/30 08:49:28;;;;;;;14.10;5.60;;;;;;;8.57;100.00;102476.00;5092538;28;20577;-65
2024/01/30 08:52:17;;;;;;;12.40;5.88;;;;;;;8.56;100.00;102483.31;5059593;28;20127;-65
2024/01/30 08:55:05;;;;;;;12.75;5.68;;;;;;;8.59;100.00;102479.34;5043827;28;20135;-64
2024/01/30 08:57:53;;;;;;;13.23;5.47;;;;;;;8.61;100.00;102480.81;5071877;28;20053;-63
2024/01/30 09:00:41;;;;;;;12.45;5.95;;;;;;;8.63;100.00;102475.13;5071551;28;20044;-63
2024/01/30 09:03:29;;;;;;;11.75;5.10;;;;;;;8.70;100.00;102465.06;5077668;28;20036;-65
2024/01/30 09:06:17;;;;;;;11.20;5.53;;;;;;;8.70;100.00;102471.34;5077116;28;20127;-65
2024/01/30 09:09:06;;;;;;;12.20;5.60;;;;;;;8.68;100.00;102475.31;5091262;28;20062;-65
2024/01/30 09:11:54;;;;;;;11.85;5.25;;;;;;;8.67;100.00;102476.38;5075343;28;20107;-65
2024/01/30 09:14:42;;;;;;;12.48;5.45;;;;;;;8.69;100.00;102479.72;5064699;28;20123;-65
2024/01/30 09:17:30;;;;;;;12.02;5.20;;;;;;;8.74;100.00;102477.19;5071113;28;20084;-66
2024/01/30 09:20:20;;;;;;;10.90;5.53;;;;;;;8.76;100.00;102483.25;5057573;28;20079;-66
2024/01/30 09:23:08;;;;;;;12.73;6.03;;;;;;;8.74;100.00;102488.06;5070656;28;20044;-65
2024/01/30 09:25:56;;;;;;;11.23;5.28;;;;;;;8.73;100.00;102491.81;5042368;28;20517;-65
2024/01/30 09:28:44;;;;;;;12.10;5.90;;;;;;;8.76;100.00;102496.84;5060493;28;20044;-64
2024/01/30 09:31:32;;;;;;;11.85;5.50;;;;;;;8.79;100.00;102495.56;5070088;28;20056;-64
2024/01/30 09:34:21;;;;;;;12.40;6.20;;;;;;;8.83;100.00;102488.66;5057496;28;20052;-65
2024/01/30 09:37:09;;;;;;;12.85;5.50;;;;;;;8.86;100.00;102497.22;5044099;28;20056;-64
2024/01/30 09:39:58;;;;;;;12.63;5.70;;;;;;;8.89;100.00;102506.81;5057433;28;20049;-63
2024/01/30 09:42:51;;;;;;;12.73;5.80;;;;;;;8.91;100.00;102508.28;5059257;28;20127;-65
2024/01/30 09:45:40;;;;;;;9.85;5.18;;;;;;;8.98;100.00;102510.13;5042797;28;20164;-64
2024/01/30 09:48:29;;;;;;;11.52;6.40;;;;;;;8.94;100.00;102504.28;5043755;28;20128;-65
2024/01/30 09:51:17;;;;;;;12.55;6.18;;;;;;;8.93;100.00;102503.47;5056863;28;20133;-65
2024/01/30 09:54:06;;;;;;;11.73;6.68;;;;;;;8.94;100.00;102507.84;5079783;28;20183;-65
2024/01/30 09:56:54;;;;;;;9.93;5.20;;;;;;;8.96;100.00;102497.56;5074403;28;20044;-66
2024/01/30 09:59:43;;;;;;;11.13;6.57;;;;;;;8.99;100.00;102504.47;5079451;28;20044;-64
2024/01/30 10:02:32;;;;;;;11.77;5.88;;;;;;;9.03;100.00;102511.16;5080658;28;20080;-64
2024/01/30 10:05:20;;;;;;;12.40;6.28;;;;;;;9.05;100.00;102509.06;5092825;28;20085;-65
2024/01/30 10:08:08;;;;;;;10.50;5.97;;;;;;;9.07;100.00;102508.84;5061372;28;20045;-63
2024/01/30 10:10:57;;;;;;;12.82;6.00;;;;;;;9.11;100.00;102518.22;5059216;28;20087;-65
2024/01/30 10:13:46;;;;;;;17.70;6.55;;;;;;;9.14;100.00;102507.75;5047223;28;20045;-66
2024/01/30 10:16:37;;;;;;;15.45;7.10;;;;;;;9.22;100.00;102519.44;5059606;28;20428;-66
2024/01/30 10:19:25;;;;;;;13.82;6.38;;;;;;;9.22;100.00;102517.56;5058498;28;20126;-65
2024/01/30 10:22:14;;;;;;;15.20;6.53;;;;;;;9.27;100.00;102514.19;5073709;28;20090;-64
2024/01/30 10:25:02;;;;;;;16.92;6.97;;;;;;;9.25;100.00;102514.38;5059795;28;20132;-65
2024/01/30 10:27:55;;;;;;;12.32;6.55;;;;;;;9.29;100.00;102515.63;5072590;28;20078;-65
2024/01/30 10:30:43;;;;;;;16.17;6.65;;;;;;;9.27;100.00;102517.72;5073767;28;20040;-65
2024/01/30 10:33:31;;;;;;;14.95;6.65;;;;;;;9.32;100.00;102512.47;5072258;28;20040;-65
2024/01/30 10:36:22;;;;;;;12.60;6.10;;;;;;;9.36;100.00;102527.31;5073557;28;20133;-64
2024/01/30 10:39:10;;;;;;;12.10;6.40;;;;;;;9.39;100.00;102526.88;5060459;28;20056;-64
2024/01/30 10:42:05;;;;;;;11.93;6.18;;;;;;;9.39;100.00;102529.59;5046756;28;20210;-65
2024/01/30 10:44:57;;;;;;;12.48;6.63;;;;;;;9.46;100.00;102528.72;5044485;28;20045;-64
2024/01/30 10:47:49;;;;;;;12.85;6.47;;;;;;;9.53;100.00;102510.47;5059377;28;20045;-64
2024/01/30 10:50:37;;;;;;;15.63;6.97;;;;;;;9.53;100.00;102515.91;5032762;28;20087;-66
2024/01/30 10:53:38;;;;;;;14.23;6.40;;;;;;;9.50;100.00;102521.78;5059273;28;20048;-64
2024/01/30 10:56:26;;;;;;;14.07;6.85;;;;;;;9.52;100.00;102527.84;5072507;28;20045;-64
2024/01/30 10:59:15;;;;;;;13.73;7.03;;;;;;;9.56;100.00;102520.91;5059359;28;20500;-65
2024/01/30 11:02:03;;;;;;;15.85;6.95;;;;;;;9.64;100.00;102520.63;5060294;28;20052;-66
2024/01/30 11:04:57;;;;;;;16.67;8.18;;;;;;;9.63;100.00;102529.88;5075558;28;20044;-64
2024/01/30 11:07:45;;;;;;;15.75;6.55;;;;;;;9.68;100.00;102526.47;5058665;28;20518;-66
2024/01/30 11:10:33;;;;;;;14.48;7.35;;;;;;;9.70;100.00;102518.94;5074981;28;20396;-64
2024/01/30 11:13:21;;;;;;;14.95;6.85;;;;;;;9.68;100.00;102526.47;5064962;28;20147;-64
2024/01/30 11:16:12;;;;;;;14.73;7.25;;;;;;;9.79;100.00;102523.88;5093262;28;20055;-65
2024/01/30 11:19:02;;;;;;;16.52;6.78;;;;;;;9.78;100.00;102538.53;5079573;28;20040;-64
2024/01/30 11:21:56;;;;;;;15.20;6.50;;;;;;;9.75;100.00;102528.09;5080890;28;20044;-65
2024/01/30 11:24:47;;;;;;;15.67;6.83;;;;;;;9.80;100.00;102536.44;5037433;28;20123;-64
2024/01/30 11:27:37;;;;;;;16.17;6.20;;;;;;;9.80;100.00;102522.00;5080954;28;20389;-64
2024/01/30 11:30:32;;;;;;;13.82;6.63;;;;;;;9.79;100.00;102529.34;5076822;28;20040;-65
2024/01/30 11:33:30;;;;;;;12.80;6.45;;;;;;;9.82;100.00;102520.72;5057236;28;20036;-65
2024/01/30 11:36:25;;;;;;;10.93;6.20;;;;;;;9.84;100.00;102514.19;5061327;28;20124;-65
2024/01/30 11:39:14;;;;;;;14.73;6.07;;;;;;;9.89;100.00;102517.13;5078205;28;20068;-64
2024/01/30 11:42:05;;;;;;;15.32;6.30;;;;;;;9.98;100.00;102513.03;5058965;28;20091;-66
2024/01/30 11:44:53;;;;;;;14.20;6.13;;;;;;;10.03;100.00;102515.97;5074297;28;20535;-65
2024/01/30 11:47:41;;;;;;;17.77;6.72;;;;;;;10.07;100.00;102522.59;5056971;28;20056;-65
2024/01/30 11:50:32;;;;;;;14.13;5.75;;;;;;;10.07;100.00;102525.34;5073337;28;20053;-65
2024/01/30 11:53:20;;;;;;;17.23;6.38;;;;;;;10.11;100.00;102523.00;5064570;28;20138;-65
2024/01/30 11:56:08;;;;;;;14.02;5.72;;;;;;;10.09;100.00;102514.22;5079582;28;20131;-65
2024/01/30 11:58:56;;;;;;;15.25;5.75;;;;;;;10.16;100.00;102521.28;5079384;28;20059;-64
2024/01/30 12:01:44;;;;;;;11.32;4.95;;;;;;;10.19;100.00;102526.25;5055540;28;20041;-63
2024/01/30 12:04:32;;;;;;;12.80;5.65;;;;;;;10.23;100.00;102527.50;5071523;28;20044;-64
2024/01/30 12:07:21;;;;;;;15.82;6.50;;;;;;;10.30;100.00;102522.03;5071525;28;20127;-65
2024/01/30 12:10:09;;;;;;;14.55;5.72;;;;;;;10.36;100.00;102528.47;5072542;28;20631;-65
2024/01/30 12:12:58;;;;;;;12.50;5.32;;;;;;;10.38;100.00;102532.63;5052331;28;20041;-63
2024/01/30 12:15:46;;;;;;;11.40;5.43;;;;;;;10.41;100.00;102532.19;5052379;28;20111;-66
2024/01/30 12:18:34;;;;;;;15.20;5.38;;;;;;;10.39;100.00;102528.84;5055299;28;20412;-66
2024/01/30 12:21:23;;;;;;;11.85;4.90;;;;;;;10.39;100.00;102528.00;5058002;28;20041;-65
2024/01/30 12:24:11;;;;;;;9.85;4.30;;;;;;;10.38;100.00;102519.00;5072440;28;20049;-66
2024/01/30 12:27:00;;;;;;;10.32;4.45;;;;;;;10.43;100.00;102537.41;5071210;28;20561;-66
2024/01/30 12:29:49;;;;;;;8.80;3.83;;;;;;;10.43;100.00;102540.13;5058203;28;20071;-67
2024/01/30 12:32:42;;;;;;;12.10;4.22;;;;;;;10.41;100.00;102534.06;5072811;28;20049;-66
2024/01/30 12:35:30;;;;;;;10.77;4.35;;;;;;;10.42;100.00;102538.47;5056356;28;20044;-67
2024/01/30 12:38:20;;;;;;;9.05;3.40;;;;;;;10.44;100.00;102549.97;5058365;28;20048;-67
2024/01/30 12:41:08;;;;;;;9.65;3.60;;;;;;;10.40;100.00;102554.22;5057807;28;20127;-67
2024/01/30 12:43:59;;;;;;;7.53;3.70;;;;;;;10.36;100.00;102555.69;5030884;28;20049;-66
2024/01/30 12:46:48;;;;;;;11.27;4.07;;;;;;;10.37;100.00;102560.94;5057558;28;20055;-66
2024/01/30 12:49:36;;;;;;;7.88;3.70;;;;;;;10.41;100.00;102575.78;5058912;28;20045;-66
2024/01/30 12:52:24;;;;;;;8.65;3.28;;;;;;;10.39;100.00;102561.56;5059940;28;20449;-66
2024/01/30 12:55:12;;;;;;;7.13;2.97;;;;;;;10.38;100.00;102569.94;5061324;28;20044;-65